Wetterstation Vordersexau
Wetterdaten: Woche 01.10.12 - 07.10.12 (KW40)
Datum Zeit Temp. A. Feuchte A. Luftdruck Regen Wind Richtung Taupunkt Windchill Windben
01.10.2012 00:00 11,8 C 82 % 1017,1 hPa 0,0 l/m 0,0 km/h N-NW 8,8 C 11,8 C 0,0 km/h
01.10.2012 01:00 11,8 C 81 % 1017,0 hPa 0,0 l/m 0,0 km/h N-NW 8,6 C 11,8 C 0,0 km/h
01.10.2012 02:00 11,6 C 80 % 1017,0 hPa 0,0 l/m 0,0 km/h N-NW 8,3 C 11,6 C 0,0 km/h
01.10.2012 03:00 11,6 C 80 % 1016,7 hPa 0,0 l/m 0,0 km/h O-NO 8,3 C 11,6 C 0,0 km/h
01.10.2012 04:00 11,6 C 79 % 1016,8 hPa 0,0 l/m 0,0 km/h O-NO 8,1 C 11,6 C 0,0 km/h
01.10.2012 05:00 11,6 C 79 % 1016,9 hPa 0,0 l/m 0,0 km/h O-NO 8,1 C 11,6 C 0,0 km/h
01.10.2012 06:00 11,5 C 78 % 1016,7 hPa 0,0 l/m 0,0 km/h O-NO 7,8 C 11,5 C 0,0 km/h
01.10.2012 07:00 11,5 C 77 % 1016,6 hPa 0,0 l/m 0,0 km/h O-SO 7,6 C 11,5 C 0,0 km/h
01.10.2012 08:00 11,8 C 76 % 1016,7 hPa 0,0 l/m 0,0 km/h O-SO 7,7 C 11,8 C 0,0 km/h
01.10.2012 09:00 12,6 C 75 % 1016,7 hPa 0,0 l/m 0,0 km/h O-SO 8,3 C 12,6 C 0,0 km/h
01.10.2012 10:00 13,7 C 77 % 1017,0 hPa 0,0 l/m 0,0 km/h O 9,7 C 13,7 C 0,0 km/h
01.10.2012 11:00 14,4 C 83 % 1017,0 hPa 0,0 l/m 0,0 km/h O 11,5 C 14,4 C 0,0 km/h
01.10.2012 12:00 14,5 C 83 % 1017,0 hPa 0,0 l/m 0,0 km/h SO 11,6 C 14,5 C 0,0 km/h
01.10.2012 13:00 16,8 C 78 % 1016,7 hPa 0,0 l/m 0,0 km/h W-NW 12,9 C 16,8 C 0,0 km/h
01.10.2012 14:00 17,9 C 68 % 1016,5 hPa 0,0 l/m 0,0 km/h S-SW 11,9 C 17,9 C 0,0 km/h
01.10.2012 15:00 19,1 C 68 % 1016,2 hPa 0,0 l/m 0,0 km/h SO 13,1 C 19,1 C 0,0 km/h
01.10.2012 16:00 20,2 C 59 % 1015,9 hPa 0,0 l/m 0,0 km/h N-NO 11,9 C 20,2 C 0,0 km/h
01.10.2012 17:00 22,8 C 49 % 1015,8 hPa 0,0 l/m 0,0 km/h N-NO 11,5 C 22,8 C 0,0 km/h
01.10.2012 18:00 22,5 C 56 % 1015,9 hPa 0,0 l/m 0,0 km/h O-NO 13,3 C 22,5 C 0,0 km/h
01.10.2012 19:00 12,6 C 75 % 1016,3 hPa 0,0 l/m 0,0 km/h O-SO 8,3 C 12,6 C 0,0 km/h
01.10.2012 20:00 11,2 C 81 % 1016,7 hPa 0,0 l/m 0,0 km/h O 8,1 C 11,2 C 0,0 km/h
01.10.2012 21:00 9,8 C 82 % 1017,0 hPa 0,0 l/m 0,0 km/h S-SO 6,9 C 9,8 C 0,0 km/h
01.10.2012 22:00 9,4 C 83 % 1017,5 hPa 0,0 l/m 0,0 km/h SO 6,7 C 9,4 C 0,0 km/h
01.10.2012 23:00 8,9 C 83 % 1017,8 hPa 0,0 l/m 0,0 km/h S-SO 6,2 C 8,9 C 0,0 km/h
02.10.2012 00:00 8,9 C 82 % 1017,9 hPa 0,0 l/m 0,0 km/h O-SO 6,0 C 8,9 C 0,0 km/h
02.10.2012 01:00 8,4 C 81 % 1017,9 hPa 0,0 l/m 0,0 km/h O-NO 5,3 C 8,4 C 0,0 km/h
02.10.2012 02:00 7,4 C 81 % 1018,0 hPa 0,0 l/m 0,0 km/h O 4,4 C 7,4 C 0,0 km/h
02.10.2012 03:00 6,9 C 80 % 1017,6 hPa 0,0 l/m 0,0 km/h O-SO 3,7 C 6,9 C 0,0 km/h
02.10.2012 04:00 6,7 C 79 % 1017,5 hPa 0,0 l/m 0,0 km/h SO 3,3 C 6,7 C 0,0 km/h
02.10.2012 05:00 6,3 C 79 % 1017,7 hPa 0,0 l/m 5,2 km/h O-SO 2,9 C 6,3 C 2,9 km/h
02.10.2012 06:00 6,4 C 78 % 1017,7 hPa 0,0 l/m 0,0 km/h S-SO 2,8 C 6,4 C 0,0 km/h
02.10.2012 07:00 6,4 C 77 % 1018,1 hPa 0,0 l/m 0,0 km/h SO 2,7 C 6,4 C 0,0 km/h
02.10.2012 08:00 7,0 C 75 % 1018,0 hPa 0,0 l/m 0,0 km/h SO 2,9 C 7,0 C 0,0 km/h
02.10.2012 09:00 11,8 C 58 % 1017,9 hPa 0,0 l/m 0,0 km/h SO 3,8 C 11,8 C 0,0 km/h
02.10.2012 10:00 16,9 C 79 % 1018,2 hPa 0,0 l/m 0,0 km/h W-SW 13,2 C 16,9 C 0,0 km/h
02.10.2012 11:00 18,7 C 64 % 1018,0 hPa 0,0 l/m 4,5 km/h W-NW 11,7 C 18,7 C 2,5 km/h
02.10.2012 12:00 21,5 C 52 % 1017,8 hPa 0,0 l/m 7,8 km/h S 11,2 C 21,0 C 4,3 km/h
02.10.2012 13:00 21,6 C 48 % 1017,6 hPa 0,0 l/m 18,8 km/h SW 10,1 C 18,5 C 10,4 km/h
02.10.2012 14:00 21,2 C 49 % 1016,9 hPa 0,0 l/m 16,2 km/h SW 10,1 C 18,5 C 9,0 km/h
02.10.2012 15:00 23,1 C 45 % 1016,4 hPa 0,0 l/m 3,2 km/h W-SW 10,5 C 23,1 C 1,8 km/h
02.10.2012 16:00 24,4 C 42 % 1016,4 hPa 0,0 l/m 6,5 km/h W 10,6 C 24,4 C 3,6 km/h
02.10.2012 17:00 24,1 C 41 % 1016,1 hPa 0,0 l/m 0,0 km/h W 10,0 C 24,1 C 0,0 km/h
02.10.2012 18:00 22,4 C 44 % 1016,0 hPa 0,0 l/m 1,9 km/h O-SO 9,5 C 22,4 C 1,1 km/h
02.10.2012 19:00 13,6 C 67 % 1015,9 hPa 0,0 l/m 0,0 km/h SO 7,6 C 13,6 C 0,0 km/h
02.10.2012 20:00 10,4 C 79 % 1016,3 hPa 0,0 l/m 0,0 km/h SO 6,9 C 10,4 C 0,0 km/h
02.10.2012 21:00 9,8 C 82 % 1016,5 hPa 0,0 l/m 0,0 km/h O-SO 6,9 C 9,8 C 0,0 km/h
02.10.2012 22:00 9,6 C 83 % 1016,9 hPa 0,0 l/m 0,0 km/h SO 6,9 C 9,6 C 0,0 km/h
02.10.2012 23:00 10,2 C 83 % 1016,5 hPa 0,0 l/m 0,0 km/h SO 7,4 C 10,2 C 0,0 km/h
03.10.2012 00:00 9,6 C 83 % 1016,8 hPa 0,0 l/m 0,0 km/h O 6,9 C 9,6 C 0,0 km/h
03.10.2012 01:00 10,6 C 83 % 1016,5 hPa 0,0 l/m 0,0 km/h SO 7,8 C 10,6 C 0,0 km/h
03.10.2012 02:00 10,6 C 83 % 1016,2 hPa 0,0 l/m 0,0 km/h O-NO 7,8 C 10,6 C 0,0 km/h
03.10.2012 03:00 10,6 C 83 % 1016,2 hPa 0,0 l/m 0,0 km/h SW 7,8 C 10,6 C 0,0 km/h
03.10.2012 04:00 12,2 C 83 % 1015,9 hPa 0,0 l/m 0,0 km/h NO 9,4 C 12,2 C 0,0 km/h
03.10.2012 05:00 12,3 C 82 % 1015,6 hPa 0,0 l/m 0,0 km/h O-NO 9,3 C 12,3 C 0,0 km/h
03.10.2012 06:00 11,3 C 83 % 1015,0 hPa 0,0 l/m 0,0 km/h NO 8,5 C 11,3 C 0,0 km/h
03.10.2012 07:00 11,3 C 83 % 1014,6 hPa 0,0 l/m 0,0 km/h NO 8,5 C 11,3 C 0,0 km/h
03.10.2012 08:00 11,9 C 83 % 1015,1 hPa 0,0 l/m 3,9 km/h SW 9,1 C 11,9 C 2,2 km/h
03.10.2012 09:00 13,3 C 83 % 1015,7 hPa 0,0 l/m 4,5 km/h S-SW 10,5 C 13,3 C 2,5 km/h
03.10.2012 10:00 12,9 C 83 % 1016,3 hPa 0,4 l/m 0,0 km/h S 10,1 C 12,9 C 0,0 km/h
03.10.2012 11:00 14,1 C 82 % 1016,3 hPa 0,0 l/m 11,7 km/h W 11,1 C 11,4 C 6,5 km/h
03.10.2012 12:00 15,8 C 81 % 1016,1 hPa 0,0 l/m 0,6 km/h S-SW 12,5 C 15,8 C 0,4 km/h
03.10.2012 13:00 16,6 C 77 % 1016,0 hPa 0,0 l/m 21,4 km/h S-SW 12,5 C 11,5 C 11,9 km/h
03.10.2012 14:00 18,8 C 68 % 1015,4 hPa 0,0 l/m 16,2 km/h SW 12,8 C 15,5 C 9,0 km/h
03.10.2012 15:00 22,3 C 58 % 1015,3 hPa 0,0 l/m 7,8 km/h S-SW 13,6 C 21,8 C 4,3 km/h
03.10.2012 16:00 22,4 C 56 % 1014,4 hPa 0,0 l/m 4,5 km/h W-SW 13,2 C 22,4 C 2,5 km/h
03.10.2012 17:00 22,6 C 50 % 1014,1 hPa 0,0 l/m 24,0 km/h S 11,6 C 19,0 C 13,3 km/h
03.10.2012 18:00 18,1 C 61 % 1014,0 hPa 0,0 l/m 7,8 km/h S-SO 10,5 C 17,4 C 4,3 km/h
03.10.2012 19:00 15,5 C 70 % 1014,2 hPa 0,0 l/m 3,2 km/h S-SO 10,1 C 15,5 C 1,8 km/h
03.10.2012 20:00 13,8 C 76 % 1014,1 hPa 0,0 l/m 0,0 km/h NO 9,6 C 13,8 C 0,0 km/h
03.10.2012 21:00 12,6 C 80 % 1013,9 hPa 0,0 l/m 0,0 km/h NO 9,2 C 12,6 C 0,0 km/h
03.10.2012 22:00 12,1 C 82 % 1013,6 hPa 0,0 l/m 1,3 km/h N-NO 9,1 C 12,1 C 0,7 km/h
03.10.2012 23:00 12,4 C 82 % 1013,3 hPa 0,0 l/m 1,9 km/h W-NW 9,4 C 12,4 C 1,1 km/h
04.10.2012 00:00 14,8 C 76 % 1013,2 hPa 0,0 l/m 5,2 km/h W-SW 10,6 C 14,8 C 2,9 km/h
04.10.2012 01:00 16,3 C 69 % 1013,0 hPa 0,0 l/m 11,7 km/h S 10,6 C 13,9 C 6,5 km/h
04.10.2012 02:00 16,8 C 67 % 1012,6 hPa 0,0 l/m 28,5 km/h W-NW 10,6 C 10,4 C 15,8 km/h
04.10.2012 03:00 16,1 C 68 % 1012,1 hPa 0,0 l/m 1,9 km/h S-SW 10,2 C 16,1 C 1,1 km/h
04.10.2012 04:00 16,2 C 69 % 1011,8 hPa 0,0 l/m 5,2 km/h S-SW 10,5 C 16,2 C 2,9 km/h
04.10.2012 05:00 16,7 C 68 % 1011,3 hPa 0,0 l/m 15,6 km/h W-SW 10,8 C 13,1 C 8,6 km/h
04.10.2012 06:00 16,1 C 69 % 1010,9 hPa 0,0 l/m 1,9 km/h SW 10,4 C 16,1 C 1,1 km/h
04.10.2012 07:00 16,0 C 71 % 1010,6 hPa 0,0 l/m 12,3 km/h W 10,7 C 13,3 C 6,8 km/h
04.10.2012 08:00 16,2 C 72 % 1010,5 hPa 0,0 l/m 7,1 km/h W-SW 11,1 C 15,8 C 4,0 km/h
04.10.2012 09:00 15,9 C 76 % 1010,4 hPa 0,0 l/m 2,6 km/h W 11,7 C 15,9 C 1,4 km/h
04.10.2012 10:00 17,0 C 75 % 1010,1 hPa 0,0 l/m 0,0 km/h W-NW 12,5 C 17,0 C 0,0 km/h
04.10.2012 11:00 17,4 C 69 % 1010,4 hPa 0,0 l/m 18,1 km/h W 11,7 C 13,3 C 10,1 km/h
04.10.2012 12:00 16,6 C 73 % 1010,8 hPa 0,4 l/m 45,4 km/h W-SW 11,7 C 8,2 C 25,2 km/h
04.10.2012 13:00 17,3 C 71 % 1010,6 hPa 0,0 l/m 17,5 km/h SW 12,0 C 13,3 C 9,7 km/h
04.10.2012 14:00 16,2 C 73 % 1011,2 hPa 0,0 l/m 21,4 km/h SW 11,4 C 11,0 C 11,9 km/h
04.10.2012 15:00 16,9 C 68 % 1011,5 hPa 0,0 l/m 39,5 km/h SW 11,0 C 9,2 C 22,0 km/h
04.10.2012 16:00 16,1 C 73 % 1012,3 hPa 0,0 l/m 46,0 km/h SW 11,3 C 7,4 C 25,6 km/h
04.10.2012 17:00 16,6 C 81 % 1014,3 hPa 0,0 l/m 0,0 km/h W 13,3 C 16,6 C 0,0 km/h
04.10.2012 18:00 18,9 C 69 % 1014,8 hPa 0,0 l/m 14,3 km/h W 13,1 C 16,1 C 7,9 km/h
04.10.2012 19:00 13,5 C 82 % 1015,7 hPa 0,0 l/m 1,3 km/h N-NO 10,5 C 13,5 C 0,7 km/h
04.10.2012 20:00 11,9 C 83 % 1016,3 hPa 0,0 l/m 0,0 km/h O-NO 9,1 C 11,9 C 0,0 km/h
04.10.2012 21:00 9,8 C 83 % 1016,7 hPa 0,0 l/m 0,0 km/h SO 7,1 C 9,8 C 0,0 km/h
04.10.2012 22:00 9,2 C 82 % 1017,1 hPa 0,0 l/m 0,0 km/h O-SO 6,3 C 9,2 C 0,0 km/h
04.10.2012 23:00 9,3 C 81 % 1017,0 hPa 0,0 l/m 0,0 km/h SO 6,2 C 9,3 C 0,0 km/h
05.10.2012 00:00 8,5 C 81 % 1016,8 hPa 0,0 l/m 0,0 km/h SO 5,4 C 8,5 C 0,0 km/h
05.10.2012 01:00 8,6 C 79 % 1016,6 hPa 0,0 l/m 0,0 km/h SO 5,2 C 8,6 C 0,0 km/h
05.10.2012 02:00 8,9 C 77 % 1016,2 hPa 0,0 l/m 0,0 km/h SO 5,1 C 8,9 C 0,0 km/h
05.10.2012 03:00 9,3 C 75 % 1015,9 hPa 0,0 l/m 0,0 km/h SO 5,1 C 9,3 C 0,0 km/h
05.10.2012 04:00 10,0 C 72 % 1015,3 hPa 0,0 l/m 3,2 km/h SO 5,2 C 10,0 C 1,8 km/h
05.10.2012 05:00 10,3 C 71 % 1015,1 hPa 0,0 l/m 0,0 km/h NO 5,3 C 10,3 C 0,0 km/h
05.10.2012 06:00 10,5 C 71 % 1014,7 hPa 0,0 l/m 0,0 km/h O-NO 5,5 C 10,5 C 0,0 km/h
05.10.2012 07:00 10,2 C 70 % 1014,9 hPa 0,0 l/m 0,0 km/h S 5,0 C 10,2 C 0,0 km/h
05.10.2012 08:00 11,4 C 67 % 1014,9 hPa 0,0 l/m 3,2 km/h S-SW 5,5 C 11,4 C 1,8 km/h
05.10.2012 09:00 15,9 C 83 % 1015,4 hPa 0,0 l/m 13,0 km/h S 13,0 C 12,9 C 7,2 km/h
05.10.2012 10:00 19,9 C 66 % 1015,7 hPa 0,0 l/m 6,5 km/h W 13,4 C 19,9 C 3,6 km/h
05.10.2012 11:00 21,9 C 58 % 1015,6 hPa 0,0 l/m 43,4 km/h W-SW 13,3 C 16,3 C 24,1 km/h
05.10.2012 12:00 23,2 C 56 % 1015,4 hPa 0,0 l/m 9,7 km/h W 13,9 C 22,3 C 5,4 km/h
05.10.2012 13:00 22,2 C 56 % 1015,2 hPa 0,0 l/m 18,8 km/h W-SW 13,0 C 19,2 C 10,4 km/h
05.10.2012 14:00 23,3 C 54 % 1015,0 hPa 0,0 l/m 18,1 km/h S-SW 13,5 C 20,7 C 10,1 km/h
05.10.2012 15:00 23,9 C 52 % 1014,1 hPa 0,0 l/m 18,8 km/h SW 13,4 C 21,4 C 10,4 km/h
05.10.2012 16:00 24,3 C 50 % 1014,1 hPa 0,0 l/m 20,1 km/h W 13,2 C 21,7 C 11,2 km/h
05.10.2012 17:00 22,9 C 55 % 1014,2 hPa 0,0 l/m 11,0 km/h S 13,4 C 21,6 C 6,1 km/h
05.10.2012 18:00 23,6 C 53 % 1014,0 hPa 0,0 l/m 11,7 km/h SO 13,4 C 22,2 C 6,5 km/h
05.10.2012 19:00 16,5 C 71 % 1014,4 hPa 0,0 l/m 0,0 km/h S 11,2 C 16,5 C 0,0 km/h
05.10.2012 20:00 16,1 C 74 % 1014,7 hPa 0,0 l/m 1,3 km/h N-NO 11,5 C 16,1 C 0,7 km/h
05.10.2012 21:00 13,6 C 81 % 1014,9 hPa 0,0 l/m 0,0 km/h NO 10,4 C 13,6 C 0,0 km/h
05.10.2012 22:00 12,5 C 83 % 1015,4 hPa 0,0 l/m 1,3 km/h NO 9,7 C 12,5 C 0,7 km/h
05.10.2012 23:00 11,6 C 83 % 1015,4 hPa 0,0 l/m 0,0 km/h SO 8,8 C 11,6 C 0,0 km/h
06.10.2012 00:00 10,9 C 82 % 1015,4 hPa 0,0 l/m 0,0 km/h O-NO 7,9 C 10,9 C 0,0 km/h
06.10.2012 01:00 10,4 C 81 % 1015,2 hPa 0,0 l/m 0,0 km/h O-SO 7,3 C 10,4 C 0,0 km/h
06.10.2012 02:00 10,1 C 80 % 1014,9 hPa 0,0 l/m 0,0 km/h SO 6,8 C 10,1 C 0,0 km/h
06.10.2012 03:00 9,9 C 79 % 1014,3 hPa 0,0 l/m 0,0 km/h SO 6,4 C 9,9 C 0,0 km/h
06.10.2012 04:00 9,8 C 78 % 1013,9 hPa 0,0 l/m 0,0 km/h S-SO 6,1 C 9,8 C 0,0 km/h
06.10.2012 05:00 10,1 C 76 % 1013,7 hPa 0,0 l/m 7,8 km/h SO 6,1 C 9,1 C 4,3 km/h
06.10.2012 06:00 9,8 C 76 % 1013,4 hPa 0,0 l/m 0,0 km/h O-NO 5,8 C 9,8 C 0,0 km/h
06.10.2012 07:00 9,8 C 75 % 1013,3 hPa 0,0 l/m 0,0 km/h O-SO 5,6 C 9,8 C 0,0 km/h
06.10.2012 08:00 9,9 C 75 % 1013,4 hPa 0,0 l/m 0,0 km/h O 5,7 C 9,9 C 0,0 km/h
06.10.2012 09:00 14,6 C 75 % 1013,6 hPa 0,0 l/m 0,0 km/h S 10,2 C 14,6 C 0,0 km/h
06.10.2012 10:00 20,8 C 67 % 1013,9 hPa 0,0 l/m 0,0 km/h W-SW 14,4 C 20,8 C 0,0 km/h
06.10.2012 11:00 21,8 C 59 % 1014,0 hPa 0,0 l/m 1,3 km/h S-SW 13,4 C 21,8 C 0,7 km/h
06.10.2012 12:00 24,1 C 50 % 1014,0 hPa 0,0 l/m 27,9 km/h W-NW 13,0 C 20,7 C 15,5 km/h
06.10.2012 13:00 24,2 C 49 % 1013,9 hPa 0,0 l/m 24,0 km/h SW 12,8 C 21,2 C 13,3 km/h
06.10.2012 14:00 23,0 C 52 % 1013,5 hPa 0,0 l/m 20,1 km/h W-NW 12,6 C 20,1 C 11,2 km/h
06.10.2012 15:00 22,3 C 55 % 1013,9 hPa 0,0 l/m 10,4 km/h W 12,8 C 21,1 C 5,8 km/h
06.10.2012 16:00 21,5 C 57 % 1013,6 hPa 0,0 l/m 9,7 km/h W-SW 12,6 C 20,4 C 5,4 km/h
06.10.2012 17:00 20,7 C 58 % 1013,6 hPa 0,0 l/m 4,5 km/h SO 12,1 C 20,7 C 2,5 km/h
06.10.2012 18:00 18,6 C 66 % 1013,2 hPa 0,0 l/m 0,0 km/h O 12,1 C 18,6 C 0,0 km/h
06.10.2012 19:00 17,0 C 73 % 1013,9 hPa 0,0 l/m 0,0 km/h SO 12,1 C 17,0 C 0,0 km/h
06.10.2012 20:00 15,3 C 81 % 1014,0 hPa 0,4 l/m 3,2 km/h O-SO 12,1 C 15,3 C 1,8 km/h
06.10.2012 21:00 14,9 C 82 % 1013,8 hPa 0,0 l/m 0,0 km/h NO 11,9 C 14,9 C 0,0 km/h
06.10.2012 22:00 14,6 C 83 % 1013,9 hPa 0,4 l/m 0,0 km/h S-SO 11,7 C 14,6 C 0,0 km/h
06.10.2012 23:00 14,3 C 81 % 1014,3 hPa 0,0 l/m 6,5 km/h SO 11,1 C 14,3 C 3,6 km/h
07.10.2012 00:00 14,2 C 79 % 1014,0 hPa 0,7 l/m 8,4 km/h SO 10,6 C 13,0 C 4,7 km/h
07.10.2012 01:00 14,9 C 77 % 1013,6 hPa 2,1 l/m 0,0 km/h S 10,9 C 14,9 C 0,0 km/h
07.10.2012 02:00 14,9 C 77 % 1013,2 hPa 1,1 l/m 3,2 km/h SO 10,9 C 14,9 C 1,8 km/h
07.10.2012 03:00 14,6 C 77 % 1012,5 hPa 0,7 l/m 0,0 km/h SW 10,6 C 14,6 C 0,0 km/h
07.10.2012 04:00 14,5 C 75 % 1012,0 hPa 1,1 l/m 7,8 km/h SW 10,1 C 13,7 C 4,3 km/h
07.10.2012 05:00 14,9 C 76 % 1011,7 hPa 0,4 l/m 0,0 km/h W 10,7 C 14,9 C 0,0 km/h
07.10.2012 06:00 14,8 C 76 % 1011,4 hPa 0,4 l/m 4,5 km/h W 10,6 C 14,8 C 2,5 km/h
07.10.2012 07:00 14,6 C 74 % 1011,8 hPa 0,0 l/m 0,0 km/h W 10,0 C 14,6 C 0,0 km/h
07.10.2012 08:00 14,8 C 73 % 1012,4 hPa 0,0 l/m 0,0 km/h W 10,0 C 14,8 C 0,0 km/h
07.10.2012 09:00 15,0 C 73 % 1013,1 hPa 0,0 l/m 0,0 km/h W-NW 10,2 C 15,0 C 0,0 km/h
07.10.2012 10:00 15,5 C 72 % 1013,7 hPa 0,7 l/m 0,0 km/h N-NW 10,5 C 15,5 C 0,0 km/h
07.10.2012 11:00 15,4 C 73 % 1014,7 hPa 0,4 l/m 2,6 km/h N 10,6 C 15,4 C 1,4 km/h
07.10.2012 12:00 15,1 C 78 % 1015,5 hPa 0,7 l/m 0,0 km/h N 11,3 C 15,1 C 0,0 km/h
07.10.2012 13:00 12,9 C 84 % 1016,8 hPa 0,0 l/m 0,0 km/h NW 10,3 C 12,9 C 0,0 km/h
07.10.2012 14:00 12,4 C 84 % 1017,3 hPa 0,0 l/m 8,4 km/h NO 9,8 C 11,1 C 4,7 km/h
07.10.2012 15:00 14,8 C 77 % 1017,9 hPa 0,0 l/m 4,5 km/h N 10,8 C 14,8 C 2,5 km/h
07.10.2012 16:00 15,1 C 72 % 1018,6 hPa 0,0 l/m 3,2 km/h N-NO 10,1 C 15,1 C 1,8 km/h
07.10.2012 17:00 16,2 C 65 % 1019,0 hPa 0,0 l/m 3,9 km/h N-NO 9,6 C 16,2 C 2,2 km/h
07.10.2012 18:00 15,3 C 65 % 1019,2 hPa 0,0 l/m 0,0 km/h NO 8,8 C 15,3 C 0,0 km/h
07.10.2012 19:00 9,9 C 80 % 1019,8 hPa 0,0 l/m 0,0 km/h N-NO 6,6 C 9,9 C 0,0 km/h
07.10.2012 20:00 8,2 C 83 % 1020,3 hPa 0,0 l/m 0,0 km/h SO 5,5 C 8,2 C 0,0 km/h
07.10.2012 21:00 7,4 C 84 % 1020,9 hPa 0,0 l/m 0,0 km/h O-SO 4,9 C 7,4 C 0,0 km/h
07.10.2012 22:00 7,1 C 83 % 1021,0 hPa 0,0 l/m 0,0 km/h SO 4,4 C 7,1 C 0,0 km/h
07.10.2012 23:00 6,4 C 83 % 1021,4 hPa 0,0 l/m 0,0 km/h SO 3,7 C 6,4 C 0,0 km/h
Min-Datum _ 02.10.12 02.10.12 04.10.12 - 01.10.12 - 02.10.12 02.10.12 01.10.12
_ Min-Zeit 05:19 17:19 10:19 - 00:19 - 07:19 05:19 00:19
Minimum _ 6,3 C 41 % 1010,1 hPa - 0,0 km/h - 2,7 C 6,3 C 0,0 km/h
Max-Datum _ 02.10.12 07.10.12 07.10.12 07.10.12 04.10.12 - 06.10.12 02.10.12 04.10.12
_ Max-Zeit 16:19 13:19 23:19 01:19 16:19 - 10:19 16:19 16:19
Maximum _ 24,4 C 84 % 1021,4 hPa 2,1 l/m 46,0 km/h
SW
- 14,4 C 24,4 C 25,6 km/h
SW
Durchschnitt _ 14,5 C 73 % 1015,3 hPa #9,6 l/m 4,8 km/h SO 9,5 C 13,8 C 2,7 km/h
www.sexauwetter.de